sensor_id;sensor_type;location;lat;lon;timestamp;temperature;humidity
9167;DHT22;4618;48.818;9.088;2022-10-14T00:01:26;12.80;1.00
9167;DHT22;4618;48.818;9.088;2022-10-14T00:03:52;12.80;1.00
9167;DHT22;4618;48.818;9.088;2022-10-14T00:06:30;12.80;1.00
9167;DHT22;4618;48.818;9.088;2022-10-14T00:08:59;12.80;1.00
9167;DHT22;4618;48.818;9.088;2022-10-14T00:11:28;12.80;1.00
9167;DHT22;4618;48.818;9.088;2022-10-14T00:14:00;12.80;1.00
9167;DHT22;4618;48.818;9.088;2022-10-14T00:16:28;12.80;29.40
9167;DHT22;4618;48.818;9.088;2022-10-14T00:18:54;12.70;1.00
9167;DHT22;4618;48.818;9.088;2022-10-14T00:21:20;12.80;1.00
9167;DHT22;4618;48.818;9.088;2022-10-14T00:23:46;12.80;1.00
9167;DHT22;4618;48.818;9.088;2022-10-14T00:26:18;12.70;1.00
9167;DHT22;4618;48.818;9.088;2022-10-14T00:28:44;12.70;1.00
9167;DHT22;4618;48.818;9.088;2022-10-14T00:31:09;12.70;1.00
9167;DHT22;4618;48.818;9.088;2022-10-14T00:33:35;12.70;1.00
9167;DHT22;4618;48.818;9.088;2022-10-14T00:36:03;12.80;1.00
9167;DHT22;4618;48.818;9.088;2022-10-14T00:38:29;12.70;1.00
9167;DHT22;4618;48.818;9.088;2022-10-14T00:40:55;12.70;1.00
9167;DHT22;4618;48.818;9.088;2022-10-14T00:43:23;12.60;1.00
9167;DHT22;4618;48.818;9.088;2022-10-14T00:45:48;12.60;1.00
9167;DHT22;4618;48.818;9.088;2022-10-14T00:48:16;12.70;1.00
9167;DHT22;4618;48.818;9.088;2022-10-14T00:50:43;12.70;44.80
9167;DHT22;4618;48.818;9.088;2022-10-14T00:53:10;12.70;99.90
9167;DHT22;4618;48.818;9.088;2022-10-14T00:55:37;12.70;1.00
9167;DHT22;4618;48.818;9.088;2022-10-14T00:58:04;12.70;1.00
9167;DHT22;4618;48.818;9.088;2022-10-14T01:00:30;12.60;1.00
9167;DHT22;4618;48.818;9.088;2022-10-14T01:02:56;12.60;1.00
9167;DHT22;4618;48.818;9.088;2022-10-14T01:05:22;12.70;1.00
9167;DHT22;4618;48.818;9.088;2022-10-14T01:08:04;12.60;1.00
9167;DHT22;4618;48.818;9.088;2022-10-14T01:13:36;12.70;99.90
9167;DHT22;4618;48.818;9.088;2022-10-14T01:16:20;12.60;99.90
9167;DHT22;4618;48.818;9.088;2022-10-14T01:32:16;12.90;22.80
9167;DHT22;4618;48.818;9.088;2022-10-14T01:34:56;12.90;1.00
9167;DHT22;4618;48.818;9.088;2022-10-14T01:37:25;13.00;99.90
9167;DHT22;4618;48.818;9.088;2022-10-14T01:40:04;12.90;1.00
9167;DHT22;4618;48.818;9.088;2022-10-14T01:42:34;12.80;1.00
9167;DHT22;4618;48.818;9.088;2022-10-14T01:45:07;12.70;97.30
9167;DHT22;4618;48.818;9.088;2022-10-14T01:47:36;12.60;99.90
9167;DHT22;4618;48.818;9.088;2022-10-14T01:50:10;12.60;1.00
9167;DHT22;4618;48.818;9.088;2022-10-14T01:53:14;12.50;60.90
9167;DHT22;4618;48.818;9.088;2022-10-14T01:55:36;12.40;99.90
9167;DHT22;4618;48.818;9.088;2022-10-14T01:58:06;12.40;1.00
9167;DHT22;4618;48.818;9.088;2022-10-14T02:00:33;12.40;1.00
9167;DHT22;4618;48.818;9.088;2022-10-14T02:02:58;12.40;1.00
9167;DHT22;4618;48.818;9.088;2022-10-14T02:08:11;12.30;59.10
9167;DHT22;4618;48.818;9.088;2022-10-14T02:10:59;12.30;99.90
9167;DHT22;4618;48.818;9.088;2022-10-14T02:14:32;12.30;99.90
9167;DHT22;4618;48.818;9.088;2022-10-14T02:16:50;12.30;1.00
9167;DHT22;4618;48.818;9.088;2022-10-14T02:19:52;12.20;1.00
9167;DHT22;4618;48.818;9.088;2022-10-14T02:22:26;12.10;1.00
9167;DHT22;4618;48.818;9.088;2022-10-14T02:24:58;12.10;1.00
9167;DHT22;4618;48.818;9.088;2022-10-14T02:27:26;12.10;1.00
9167;DHT22;4618;48.818;9.088;2022-10-14T02:29:53;12.10;1.00
9167;DHT22;4618;48.818;9.088;2022-10-14T02:32:20;12.00;1.00
9167;DHT22;4618;48.818;9.088;2022-10-14T02:34:49;12.00;1.00
9167;DHT22;4618;48.818;9.088;2022-10-14T02:37:16;11.90;1.00
9167;DHT22;4618;48.818;9.088;2022-10-14T02:39:51;11.90;1.00
9167;DHT22;4618;48.818;9.088;2022-10-14T02:42:18;11.90;17.80
9167;DHT22;4618;48.818;9.088;2022-10-14T02:45:10;11.90;26.50
9167;DHT22;4618;48.818;9.088;2022-10-14T02:47:37;12.00;37.60
9167;DHT22;4618;48.818;9.088;2022-10-14T02:50:03;12.00;47.40
9167;DHT22;4618;48.818;9.088;2022-10-14T02:52:28;12.00;46.50
9167;DHT22;4618;48.818;9.088;2022-10-14T02:54:54;12.00;70.10
9167;DHT22;4618;48.818;9.088;2022-10-14T02:57:19;12.10;78.60
9167;DHT22;4618;48.818;9.088;2022-10-14T02:59:45;12.10;82.90
9167;DHT22;4618;48.818;9.088;2022-10-14T03:02:10;12.10;79.20
9167;DHT22;4618;48.818;9.088;2022-10-14T03:04:36;12.20;94.20
9167;DHT22;4618;48.818;9.088;2022-10-14T03:07:02;12.20;94.30
9167;DHT22;4618;48.818;9.088;2022-10-14T03:09:28;12.20;97.90
9167;DHT22;4618;48.818;9.088;2022-10-14T03:11:53;12.20;91.10
9167;DHT22;4618;48.818;9.088;2022-10-14T03:14:19;12.10;95.80
9167;DHT22;4618;48.818;9.088;2022-10-14T03:16:44;12.10;97.60
9167;DHT22;4618;48.818;9.088;2022-10-14T03:19:10;12.00;96.40
9167;DHT22;4618;48.818;9.088;2022-10-14T03:21:35;11.90;92.80
9167;DHT22;4618;48.818;9.088;2022-10-14T03:24:01;11.90;99.90
9167;DHT22;4618;48.818;9.088;2022-10-14T03:26:27;12.00;99.90
9167;DHT22;4618;48.818;9.088;2022-10-14T03:28:53;11.90;95.30
9167;DHT22;4618;48.818;9.088;2022-10-14T03:31:19;11.90;93.00
9167;DHT22;4618;48.818;9.088;2022-10-14T03:33:44;11.90;84.80
9167;DHT22;4618;48.818;9.088;2022-10-14T03:36:10;11.90;79.30
9167;DHT22;4618;48.818;9.088;2022-10-14T03:38:36;11.80;57.10
9167;DHT22;4618;48.818;9.088;2022-10-14T03:41:02;11.90;41.90
9167;DHT22;4618;48.818;9.088;2022-10-14T03:43:27;11.90;36.10
9167;DHT22;4618;48.818;9.088;2022-10-14T03:45:54;11.90;36.90
9167;DHT22;4618;48.818;9.088;2022-10-14T03:48:20;12.00;40.60
9167;DHT22;4618;48.818;9.088;2022-10-14T03:50:46;11.90;73.00
9167;DHT22;4618;48.818;9.088;2022-10-14T03:53:12;12.00;78.60
9167;DHT22;4618;48.818;9.088;2022-10-14T03:55:37;11.90;89.10
9167;DHT22;4618;48.818;9.088;2022-10-14T03:58:03;11.90;95.60
9167;DHT22;4618;48.818;9.088;2022-10-14T04:00:29;11.80;98.20
9167;DHT22;4618;48.818;9.088;2022-10-14T04:02:54;11.90;99.90
9167;DHT22;4618;48.818;9.088;2022-10-14T04:05:20;11.90;99.90
9167;DHT22;4618;48.818;9.088;2022-10-14T04:07:46;11.90;99.90
9167;DHT22;4618;48.818;9.088;2022-10-14T04:10:11;11.90;99.90
9167;DHT22;4618;48.818;9.088;2022-10-14T04:12:37;11.90;99.90
9167;DHT22;4618;48.818;9.088;2022-10-14T04:15:08;11.90;99.90
9167;DHT22;4618;48.818;9.088;2022-10-14T04:17:33;11.90;99.90
9167;DHT22;4618;48.818;9.088;2022-10-14T04:19:59;11.90;99.90
9167;DHT22;4618;48.818;9.088;2022-10-14T04:22:25;11.90;99.90
9167;DHT22;4618;48.818;9.088;2022-10-14T04:24:50;11.90;99.90
9167;DHT22;4618;48.818;9.088;2022-10-14T04:27:16;11.90;99.90
9167;DHT22;4618;48.818;9.088;2022-10-14T04:29:42;11.90;99.90
9167;DHT22;4618;48.818;9.088;2022-10-14T04:32:08;11.90;94.40
9167;DHT22;4618;48.818;9.088;2022-10-14T04:34:33;11.90;91.80
9167;DHT22;4618;48.818;9.088;2022-10-14T04:36:59;11.80;77.30
9167;DHT22;4618;48.818;9.088;2022-10-14T04:39:24;11.90;70.40
9167;DHT22;4618;48.818;9.088;2022-10-14T04:41:50;12.00;58.20
9167;DHT22;4618;48.818;9.088;2022-10-14T04:44:15;11.90;57.20
9167;DHT22;4618;48.818;9.088;2022-10-14T04:46:41;11.90;61.40
9167;DHT22;4618;48.818;9.088;2022-10-14T04:49:08;12.00;61.30
9167;DHT22;4618;48.818;9.088;2022-10-14T04:51:33;12.00;59.40
9167;DHT22;4618;48.818;9.088;2022-10-14T04:53:59;12.00;76.70
9167;DHT22;4618;48.818;9.088;2022-10-14T04:56:24;12.00;73.10
9167;DHT22;4618;48.818;9.088;2022-10-14T04:58:50;11.90;84.70
9167;DHT22;4618;48.818;9.088;2022-10-14T05:01:15;12.00;83.40
9167;DHT22;4618;48.818;9.088;2022-10-14T05:03:43;12.10;81.10
9167;DHT22;4618;48.818;9.088;2022-10-14T05:06:08;12.10;90.80
9167;DHT22;4618;48.818;9.088;2022-10-14T05:08:35;12.10;99.90
9167;DHT22;4618;48.818;9.088;2022-10-14T05:11:00;12.20;99.90
9167;DHT22;4618;48.818;9.088;2022-10-14T05:13:28;12.20;99.90
9167;DHT22;4618;48.818;9.088;2022-10-14T05:15:54;12.20;99.90
9167;DHT22;4618;48.818;9.088;2022-10-14T05:18:19;12.30;99.90
9167;DHT22;4618;48.818;9.088;2022-10-14T05:20:45;12.40;1.00
9167;DHT22;4618;48.818;9.088;2022-10-14T05:23:10;12.40;1.00
9167;DHT22;4618;48.818;9.088;2022-10-14T05:25:36;12.40;1.00
9167;DHT22;4618;48.818;9.088;2022-10-14T05:28:01;12.40;1.00
9167;DHT22;4618;48.818;9.088;2022-10-14T05:30:27;12.40;1.00
9167;DHT22;4618;48.818;9.088;2022-10-14T05:32:53;12.40;1.00
9167;DHT22;4618;48.818;9.088;2022-10-14T05:35:18;12.40;1.00
9167;DHT22;4618;48.818;9.088;2022-10-14T05:37:44;12.40;1.00
9167;DHT22;4618;48.818;9.088;2022-10-14T05:40:10;12.50;1.00
9167;DHT22;4618;48.818;9.088;2022-10-14T05:42:36;12.50;1.00
9167;DHT22;4618;48.818;9.088;2022-10-14T05:45:01;12.50;1.00
9167;DHT22;4618;48.818;9.088;2022-10-14T05:47:27;12.60;1.00
9167;DHT22;4618;48.818;9.088;2022-10-14T05:49:52;12.50;99.90
9167;DHT22;4618;48.818;9.088;2022-10-14T05:52:18;12.50;1.00
9167;DHT22;4618;48.818;9.088;2022-10-14T05:54:43;12.50;1.00
9167;DHT22;4618;48.818;9.088;2022-10-14T05:57:09;12.50;1.00
9167;DHT22;4618;48.818;9.088;2022-10-14T05:59:35;12.50;1.00
9167;DHT22;4618;48.818;9.088;2022-10-14T06:02:01;12.50;1.00
9167;DHT22;4618;48.818;9.088;2022-10-14T06:04:27;12.60;1.00
9167;DHT22;4618;48.818;9.088;2022-10-14T06:06:52;12.50;1.00
9167;DHT22;4618;48.818;9.088;2022-10-14T06:09:18;12.50;1.00
9167;DHT22;4618;48.818;9.088;2022-10-14T06:11:44;12.50;1.00
9167;DHT22;4618;48.818;9.088;2022-10-14T06:14:09;12.50;1.00
9167;DHT22;4618;48.818;9.088;2022-10-14T06:16:35;12.50;1.00
9167;DHT22;4618;48.818;9.088;2022-10-14T06:19:01;12.50;1.00
9167;DHT22;4618;48.818;9.088;2022-10-14T06:21:26;12.60;1.00
9167;DHT22;4618;48.818;9.088;2022-10-14T06:23:52;12.60;1.00
9167;DHT22;4618;48.818;9.088;2022-10-14T06:26:17;12.70;1.00
9167;DHT22;4618;48.818;9.088;2022-10-14T06:28:43;12.70;1.00
9167;DHT22;4618;48.818;9.088;2022-10-14T06:31:08;12.80;1.00
9167;DHT22;4618;48.818;9.088;2022-10-14T06:33:34;12.80;1.00
9167;DHT22;4618;48.818;9.088;2022-10-14T06:36:04;12.80;1.00
9167;DHT22;4618;48.818;9.088;2022-10-14T06:38:30;12.80;1.00
9167;DHT22;4618;48.818;9.088;2022-10-14T06:40:56;12.90;99.90
9167;DHT22;4618;48.818;9.088;2022-10-14T06:43:21;13.00;1.00
9167;DHT22;4618;48.818;9.088;2022-10-14T06:45:47;13.10;1.00
9167;DHT22;4618;48.818;9.088;2022-10-14T06:48:13;13.10;99.90
9167;DHT22;4618;48.818;9.088;2022-10-14T06:50:39;13.20;99.90
9167;DHT22;4618;48.818;9.088;2022-10-14T06:53:05;13.30;1.00
9167;DHT22;4618;48.818;9.088;2022-10-14T06:55:30;13.40;99.90
9167;DHT22;4618;48.818;9.088;2022-10-14T06:57:56;13.60;1.00
9167;DHT22;4618;48.818;9.088;2022-10-14T07:00:22;13.70;1.00
9167;DHT22;4618;48.818;9.088;2022-10-14T07:02:48;13.60;1.00
9167;DHT22;4618;48.818;9.088;2022-10-14T07:05:14;13.60;99.90
9167;DHT22;4618;48.818;9.088;2022-10-14T07:07:40;13.60;1.00
9167;DHT22;4618;48.818;9.088;2022-10-14T07:10:06;13.60;99.90
9167;DHT22;4618;48.818;9.088;2022-10-14T07:12:31;13.60;1.00
9167;DHT22;4618;48.818;9.088;2022-10-14T07:14:57;13.50;99.90
9167;DHT22;4618;48.818;9.088;2022-10-14T07:17:23;13.40;99.90
9167;DHT22;4618;48.818;9.088;2022-10-14T07:19:48;13.30;99.90
9167;DHT22;4618;48.818;9.088;2022-10-14T07:22:14;13.50;1.00
9167;DHT22;4618;48.818;9.088;2022-10-14T07:24:42;13.40;1.00
9167;DHT22;4618;48.818;9.088;2022-10-14T07:27:08;13.50;1.00
9167;DHT22;4618;48.818;9.088;2022-10-14T07:29:33;13.60;11.50
9167;DHT22;4618;48.818;9.088;2022-10-14T07:31:59;13.80;90.70
9167;DHT22;4618;48.818;9.088;2022-10-14T07:34:24;14.00;99.90
9167;DHT22;4618;48.818;9.088;2022-10-14T07:36:50;14.10;99.90
9167;DHT22;4618;48.818;9.088;2022-10-14T07:39:16;14.20;99.90
9167;DHT22;4618;48.818;9.088;2022-10-14T07:41:41;14.20;1.00
9167;DHT22;4618;48.818;9.088;2022-10-14T07:44:07;14.30;1.00
9167;DHT22;4618;48.818;9.088;2022-10-14T07:46:37;14.30;1.00
9167;DHT22;4618;48.818;9.088;2022-10-14T07:49:04;14.40;1.00
9167;DHT22;4618;48.818;9.088;2022-10-14T07:51:32;14.50;1.00
9167;DHT22;4618;48.818;9.088;2022-10-14T07:53:59;14.60;1.00
9167;DHT22;4618;48.818;9.088;2022-10-14T07:56:26;14.80;1.00
9167;DHT22;4618;48.818;9.088;2022-10-14T07:58:51;14.90;1.00
9167;DHT22;4618;48.818;9.088;2022-10-14T08:01:17;14.90;1.00
9167;DHT22;4618;48.818;9.088;2022-10-14T08:03:44;14.90;1.00
9167;DHT22;4618;48.818;9.088;2022-10-14T08:06:12;14.90;1.00
9167;DHT22;4618;48.818;9.088;2022-10-14T08:08:39;15.00;10.00
9167;DHT22;4618;48.818;9.088;2022-10-14T08:11:08;15.00;99.90
9167;DHT22;4618;48.818;9.088;2022-10-14T08:13:35;15.10;1.00
9167;DHT22;4618;48.818;9.088;2022-10-14T08:16:01;15.20;99.90
9167;DHT22;4618;48.818;9.088;2022-10-14T08:18:26;15.40;99.90
9167;DHT22;4618;48.818;9.088;2022-10-14T08:20:53;15.30;99.90
9167;DHT22;4618;48.818;9.088;2022-10-14T08:23:18;15.30;1.00
9167;DHT22;4618;48.818;9.088;2022-10-14T08:25:46;15.50;99.90
9167;DHT22;4618;48.818;9.088;2022-10-14T08:28:12;15.50;99.90
9167;DHT22;4618;48.818;9.088;2022-10-14T08:30:37;15.50;1.00
9167;DHT22;4618;48.818;9.088;2022-10-14T08:33:03;15.70;99.90
9167;DHT22;4618;48.818;9.088;2022-10-14T08:35:28;15.80;99.90
9167;DHT22;4618;48.818;9.088;2022-10-14T08:37:58;15.90;1.00
9167;DHT22;4618;48.818;9.088;2022-10-14T08:40:29;16.00;1.00
9167;DHT22;4618;48.818;9.088;2022-10-14T08:43:01;16.10;99.90
9167;DHT22;4618;48.818;9.088;2022-10-14T08:45:41;16.50;1.00
9167;DHT22;4618;48.818;9.088;2022-10-14T08:48:16;16.70;1.00
9167;DHT22;4618;48.818;9.088;2022-10-14T08:51:09;16.60;1.00
9167;DHT22;4618;48.818;9.088;2022-10-14T08:53:40;16.40;1.00
9167;DHT22;4618;48.818;9.088;2022-10-14T08:56:09;16.60;1.00
9167;DHT22;4618;48.818;9.088;2022-10-14T08:58:42;16.60;1.00
9167;DHT22;4618;48.818;9.088;2022-10-14T09:03:57;16.80;1.00
9167;DHT22;4618;48.818;9.088;2022-10-14T09:06:25;16.70;1.00
9167;DHT22;4618;48.818;9.088;2022-10-14T09:08:54;16.60;99.90
9167;DHT22;4618;48.818;9.088;2022-10-14T09:11:22;16.60;1.00
9167;DHT22;4618;48.818;9.088;2022-10-14T09:13:52;16.40;99.90
9167;DHT22;4618;48.818;9.088;2022-10-14T09:16:22;16.40;42.40
9167;DHT22;4618;48.818;9.088;2022-10-14T09:18:55;16.20;1.00
9167;DHT22;4618;48.818;9.088;2022-10-14T09:23:59;16.10;99.90
9167;DHT22;4618;48.818;9.088;2022-10-14T09:26:34;16.30;1.00
9167;DHT22;4618;48.818;9.088;2022-10-14T09:29:01;16.50;1.00
9167;DHT22;4618;48.818;9.088;2022-10-14T09:31:26;16.70;1.00
9167;DHT22;4618;48.818;9.088;2022-10-14T09:33:52;16.70;1.00
9167;DHT22;4618;48.818;9.088;2022-10-14T09:36:19;16.90;99.90
9167;DHT22;4618;48.818;9.088;2022-10-14T09:38:49;17.40;1.00
9167;DHT22;4618;48.818;9.088;2022-10-14T09:41:20;17.80;1.00
9167;DHT22;4618;48.818;9.088;2022-10-14T09:44:22;17.40;1.00
9167;DHT22;4618;48.818;9.088;2022-10-14T09:46:57;17.50;99.90
9167;DHT22;4618;48.818;9.088;2022-10-14T09:49:37;17.30;1.00
9167;DHT22;4618;48.818;9.088;2022-10-14T09:52:05;17.30;1.00
9167;DHT22;4618;48.818;9.088;2022-10-14T09:54:32;17.20;1.00
9167;DHT22;4618;48.818;9.088;2022-10-14T09:57:16;17.40;99.90
9167;DHT22;4618;48.818;9.088;2022-10-14T09:59:58;17.80;99.90
9167;DHT22;4618;48.818;9.088;2022-10-14T10:02:35;17.80;99.90
9167;DHT22;4618;48.818;9.088;2022-10-14T10:05:22;17.60;99.90
9167;DHT22;4618;48.818;9.088;2022-10-14T10:10:26;18.10;97.50
9167;DHT22;4618;48.818;9.088;2022-10-14T10:12:55;18.00;1.00
9167;DHT22;4618;48.818;9.088;2022-10-14T10:15:21;18.20;99.90
9167;DHT22;4618;48.818;9.088;2022-10-14T10:17:47;18.50;1.00
9167;DHT22;4618;48.818;9.088;2022-10-14T10:22:41;18.20;1.00
9167;DHT22;4618;48.818;9.088;2022-10-14T10:27:37;18.50;1.00
9167;DHT22;4618;48.818;9.088;2022-10-14T10:36:09;18.20;67.20
9167;DHT22;4618;48.818;9.088;2022-10-14T10:38:50;17.80;1.00
9167;DHT22;4618;48.818;9.088;2022-10-14T10:41:33;17.30;99.90
9167;DHT22;4618;48.818;9.088;2022-10-14T10:55:27;17.70;99.90
9167;DHT22;4618;48.818;9.088;2022-10-14T10:58:18;18.10;49.50
9167;DHT22;4618;48.818;9.088;2022-10-14T11:00:54;18.10;1.00
9167;DHT22;4618;48.818;9.088;2022-10-14T11:09:22;17.20;1.00
9167;DHT22;4618;48.818;9.088;2022-10-14T11:12:20;17.10;1.00
9167;DHT22;4618;48.818;9.088;2022-10-14T11:18:02;16.50;1.00
9167;DHT22;4618;48.818;9.088;2022-10-14T11:21:14;16.00;99.90
9167;DHT22;4618;48.818;9.088;2022-10-14T11:23:55;15.80;99.90
9167;DHT22;4618;48.818;9.088;2022-10-14T11:32:03;15.80;99.90
9167;DHT22;4618;48.818;9.088;2022-10-14T11:37:28;16.10;1.00
9167;DHT22;4618;48.818;9.088;2022-10-14T11:39:56;16.30;1.00
9167;DHT22;4618;48.818;9.088;2022-10-14T11:42:37;16.50;1.00
9167;DHT22;4618;48.818;9.088;2022-10-14T11:45:42;16.60;1.00
9167;DHT22;4618;48.818;9.088;2022-10-14T11:51:22;17.10;99.90
9167;DHT22;4618;48.818;9.088;2022-10-14T11:54:08;17.40;99.90
9167;DHT22;4618;48.818;9.088;2022-10-14T11:56:48;17.80;1.00
9167;DHT22;4618;48.818;9.088;2022-10-14T11:59:31;17.90;1.00
9167;DHT22;4618;48.818;9.088;2022-10-14T12:02:26;18.30;99.90
9167;DHT22;4618;48.818;9.088;2022-10-14T12:05:05;18.20;1.00
9167;DHT22;4618;48.818;9.088;2022-10-14T12:07:38;18.20;99.90
9167;DHT22;4618;48.818;9.088;2022-10-14T12:10:18;17.70;1.00
9167;DHT22;4618;48.818;9.088;2022-10-14T12:12:46;17.80;1.00
9167;DHT22;4618;48.818;9.088;2022-10-14T12:15:19;18.00;99.90
9167;DHT22;4618;48.818;9.088;2022-10-14T12:18:00;18.20;9.30
9167;DHT22;4618;48.818;9.088;2022-10-14T12:26:46;18.10;99.90
9167;DHT22;4618;48.818;9.088;2022-10-14T12:28:44;18.00;1.00
9167;DHT22;4618;48.818;9.088;2022-10-14T12:31:33;18.10;1.00
9167;DHT22;4618;48.818;9.088;2022-10-14T12:34:25;18.40;99.90
9167;DHT22;4618;48.818;9.088;2022-10-14T12:36:51;18.70;99.90
9167;DHT22;4618;48.818;9.088;2022-10-14T12:41:50;18.90;99.90
9167;DHT22;4618;48.818;9.088;2022-10-14T12:44:21;19.60;99.90
9167;DHT22;4618;48.818;9.088;2022-10-14T12:46:50;19.70;1.00
9167;DHT22;4618;48.818;9.088;2022-10-14T12:49:28;18.90;99.90
9167;DHT22;4618;48.818;9.088;2022-10-14T12:51:59;18.10;1.00
9167;DHT22;4618;48.818;9.088;2022-10-14T12:54:27;17.90;1.00
9167;DHT22;4618;48.818;9.088;2022-10-14T12:56:56;18.10;1.00
9167;DHT22;4618;48.818;9.088;2022-10-14T12:59:31;18.30;99.90
9167;DHT22;4618;48.818;9.088;2022-10-14T13:02:10;18.40;1.00
9167;DHT22;4618;48.818;9.088;2022-10-14T13:04:49;18.50;1.00
9167;DHT22;4618;48.818;9.088;2022-10-14T13:09:43;18.50;99.90
9167;DHT22;4618;48.818;9.088;2022-10-14T13:15:01;18.70;99.90
9167;DHT22;4618;48.818;9.088;2022-10-14T13:17:46;18.80;1.00
9167;DHT22;4618;48.818;9.088;2022-10-14T13:26:22;18.30;99.90
9167;DHT22;4618;48.818;9.088;2022-10-14T13:40:32;18.60;99.90
9167;DHT22;4618;48.818;9.088;2022-10-14T13:43:06;18.30;99.90
9167;DHT22;4618;48.818;9.088;2022-10-14T13:45:40;18.00;1.00
9167;DHT22;4618;48.818;9.088;2022-10-14T13:48:28;17.90;1.00
9167;DHT22;4618;48.818;9.088;2022-10-14T13:53:32;17.60;23.00
9167;DHT22;4618;48.818;9.088;2022-10-14T13:55:58;17.60;99.90
9167;DHT22;4618;48.818;9.088;2022-10-14T13:58:23;17.70;99.90
9167;DHT22;4618;48.818;9.088;2022-10-14T14:03:34;17.70;99.90
9167;DHT22;4618;48.818;9.088;2022-10-14T14:06:03;17.60;99.90
9167;DHT22;4618;48.818;9.088;2022-10-14T14:08:33;17.60;99.90
9167;DHT22;4618;48.818;9.088;2022-10-14T14:11:03;17.30;1.00
9167;DHT22;4618;48.818;9.088;2022-10-14T14:13:34;17.00;99.90
9167;DHT22;4618;48.818;9.088;2022-10-14T14:16:02;16.60;99.90
9167;DHT22;4618;48.818;9.088;2022-10-14T14:18:35;16.10;1.00
9167;DHT22;4618;48.818;9.088;2022-10-14T14:21:02;15.90;99.90
9167;DHT22;4618;48.818;9.088;2022-10-14T14:23:29;15.80;1.00
9167;DHT22;4618;48.818;9.088;2022-10-14T14:25:55;15.80;99.90
9167;DHT22;4618;48.818;9.088;2022-10-14T14:28:21;15.80;47.90
9167;DHT22;4618;48.818;9.088;2022-10-14T14:30:53;15.80;99.90
9167;DHT22;4618;48.818;9.088;2022-10-14T14:33:31;15.90;70.40
9167;DHT22;4618;48.818;9.088;2022-10-14T14:36:00;15.90;1.00
9167;DHT22;4618;48.818;9.088;2022-10-14T14:38:28;15.90;1.00
9167;DHT22;4618;48.818;9.088;2022-10-14T14:43:42;16.00;1.00
9167;DHT22;4618;48.818;9.088;2022-10-14T14:46:17;16.10;1.00
9167;DHT22;4618;48.818;9.088;2022-10-14T14:48:45;16.10;1.00
9167;DHT22;4618;48.818;9.088;2022-10-14T14:51:13;16.10;1.00
9167;DHT22;4618;48.818;9.088;2022-10-14T14:53:39;16.10;99.90
9167;DHT22;4618;48.818;9.088;2022-10-14T14:56:06;16.10;99.90
9167;DHT22;4618;48.818;9.088;2022-10-14T14:58:47;16.10;99.90
9167;DHT22;4618;48.818;9.088;2022-10-14T15:01:27;16.20;99.90
9167;DHT22;4618;48.818;9.088;2022-10-14T15:04:02;16.20;99.90
9167;DHT22;4618;48.818;9.088;2022-10-14T15:06:29;16.10;99.90
9167;DHT22;4618;48.818;9.088;2022-10-14T15:08:56;16.10;1.00
9167;DHT22;4618;48.818;9.088;2022-10-14T15:11:24;16.10;99.90
9167;DHT22;4618;48.818;9.088;2022-10-14T15:13:55;16.30;99.90
9167;DHT22;4618;48.818;9.088;2022-10-14T15:16:37;16.30;99.90
9167;DHT22;4618;48.818;9.088;2022-10-14T15:19:22;16.20;15.50
9167;DHT22;4618;48.818;9.088;2022-10-14T15:25:04;16.10;1.00
9167;DHT22;4618;48.818;9.088;2022-10-14T15:30:24;16.00;99.90
9167;DHT22;4618;48.818;9.088;2022-10-14T15:33:20;16.10;1.00
9167;DHT22;4618;48.818;9.088;2022-10-14T15:35:59;16.00;99.90
9167;DHT22;4618;48.818;9.088;2022-10-14T15:38:27;15.90;99.90
9167;DHT22;4618;48.818;9.088;2022-10-14T15:40:53;15.90;1.00
9167;DHT22;4618;48.818;9.088;2022-10-14T15:43:20;15.80;99.90
9167;DHT22;4618;48.818;9.088;2022-10-14T15:45:48;15.80;99.90
9167;DHT22;4618;48.818;9.088;2022-10-14T15:48:48;15.80;99.90
9167;DHT22;4618;48.818;9.088;2022-10-14T15:51:16;15.80;99.90
9167;DHT22;4618;48.818;9.088;2022-10-14T15:53:41;15.60;1.00
9167;DHT22;4618;48.818;9.088;2022-10-14T15:56:07;15.50;1.00
9167;DHT22;4618;48.818;9.088;2022-10-14T15:58:34;15.30;99.90
9167;DHT22;4618;48.818;9.088;2022-10-14T16:01:01;15.30;99.90
9167;DHT22;4618;48.818;9.088;2022-10-14T16:03:26;15.30;99.90
9167;DHT22;4618;48.818;9.088;2022-10-14T16:05:52;15.20;1.00
9167;DHT22;4618;48.818;9.088;2022-10-14T16:08:18;15.20;1.00
9167;DHT22;4618;48.818;9.088;2022-10-14T16:10:44;15.20;1.00
9167;DHT22;4618;48.818;9.088;2022-10-14T16:13:11;15.20;1.00
9167;DHT22;4618;48.818;9.088;2022-10-14T16:15:50;15.20;99.90
9167;DHT22;4618;48.818;9.088;2022-10-14T16:18:17;15.10;99.90
9167;DHT22;4618;48.818;9.088;2022-10-14T16:20:46;15.10;99.90
9167;DHT22;4618;48.818;9.088;2022-10-14T16:23:16;15.10;1.00
9167;DHT22;4618;48.818;9.088;2022-10-14T16:25:44;15.00;99.90
9167;DHT22;4618;48.818;9.088;2022-10-14T16:28:10;15.10;1.00
9167;DHT22;4618;48.818;9.088;2022-10-14T16:30:38;15.00;41.90
9167;DHT22;4618;48.818;9.088;2022-10-14T16:33:05;15.00;99.90
9167;DHT22;4618;48.818;9.088;2022-10-14T16:35:30;14.90;99.90
9167;DHT22;4618;48.818;9.088;2022-10-14T16:37:56;14.90;99.90
9167;DHT22;4618;48.818;9.088;2022-10-14T16:40:23;14.80;99.90
9167;DHT22;4618;48.818;9.088;2022-10-14T16:42:49;14.80;1.00
9167;DHT22;4618;48.818;9.088;2022-10-14T16:45:15;14.80;1.00
9167;DHT22;4618;48.818;9.088;2022-10-14T16:47:40;14.80;1.00
9167;DHT22;4618;48.818;9.088;2022-10-14T16:50:07;14.80;1.00
9167;DHT22;4618;48.818;9.088;2022-10-14T16:52:34;14.80;99.90
9167;DHT22;4618;48.818;9.088;2022-10-14T16:55:19;14.80;99.90
9167;DHT22;4618;48.818;9.088;2022-10-14T16:57:45;14.80;99.90
9167;DHT22;4618;48.818;9.088;2022-10-14T17:00:12;14.80;99.90
9167;DHT22;4618;48.818;9.088;2022-10-14T17:02:37;14.80;99.90
9167;DHT22;4618;48.818;9.088;2022-10-14T17:05:03;14.80;50.10
9167;DHT22;4618;48.818;9.088;2022-10-14T17:07:29;14.80;99.90
9167;DHT22;4618;48.818;9.088;2022-10-14T17:09:55;14.80;99.90
9167;DHT22;4618;48.818;9.088;2022-10-14T17:12:22;14.70;99.90
9167;DHT22;4618;48.818;9.088;2022-10-14T17:14:47;14.70;99.90
9167;DHT22;4618;48.818;9.088;2022-10-14T17:17:13;14.80;33.50
9167;DHT22;4618;48.818;9.088;2022-10-14T17:19:39;14.70;19.70
9167;DHT22;4618;48.818;9.088;2022-10-14T17:22:04;14.70;99.90
9167;DHT22;4618;48.818;9.088;2022-10-14T17:24:30;14.60;99.90
9167;DHT22;4618;48.818;9.088;2022-10-14T17:26:55;14.60;99.90
9167;DHT22;4618;48.818;9.088;2022-10-14T17:29:21;14.60;99.90
9167;DHT22;4618;48.818;9.088;2022-10-14T17:31:47;14.50;1.00
9167;DHT22;4618;48.818;9.088;2022-10-14T17:34:12;14.50;99.90
9167;DHT22;4618;48.818;9.088;2022-10-14T17:36:38;14.50;99.90
9167;DHT22;4618;48.818;9.088;2022-10-14T17:39:06;14.60;99.90
9167;DHT22;4618;48.818;9.088;2022-10-14T17:41:32;14.50;99.90
9167;DHT22;4618;48.818;9.088;2022-10-14T17:43:59;14.60;75.20
9167;DHT22;4618;48.818;9.088;2022-10-14T17:46:26;14.60;68.10
9167;DHT22;4618;48.818;9.088;2022-10-14T17:48:58;14.60;93.00
9167;DHT22;4618;48.818;9.088;2022-10-14T17:51:25;14.60;1.00
9167;DHT22;4618;48.818;9.088;2022-10-14T17:53:59;14.70;1.00
9167;DHT22;4618;48.818;9.088;2022-10-14T17:56:27;14.70;1.00
9167;DHT22;4618;48.818;9.088;2022-10-14T17:58:54;14.70;1.00
9167;DHT22;4618;48.818;9.088;2022-10-14T18:01:20;14.70;1.00
9167;DHT22;4618;48.818;9.088;2022-10-14T18:03:46;14.60;1.00
9167;DHT22;4618;48.818;9.088;2022-10-14T18:06:14;14.60;95.80
9167;DHT22;4618;48.818;9.088;2022-10-14T18:08:41;14.50;99.90
9167;DHT22;4618;48.818;9.088;2022-10-14T18:11:08;14.50;99.90
9167;DHT22;4618;48.818;9.088;2022-10-14T18:13:34;14.40;1.00
9167;DHT22;4618;48.818;9.088;2022-10-14T18:16:08;14.30;1.00
9167;DHT22;4618;48.818;9.088;2022-10-14T18:18:34;14.40;1.60
9167;DHT22;4618;48.818;9.088;2022-10-14T18:21:01;14.30;99.90